createdAt,value
2018-11-04T00:01:01.853Z,34.53
2018-11-04T00:03:30.382Z,37.60
2018-11-04T00:05:58.347Z,35.45
2018-11-04T00:08:26.060Z,33.95
2018-11-04T00:10:54.121Z,33.90
2018-11-04T00:13:21.676Z,35.68
2018-11-04T00:15:49.540Z,41.80
2018-11-04T00:18:17.768Z,33.65
2018-11-04T00:20:45.851Z,32.48
2018-11-04T00:23:13.271Z,33.20
2018-11-04T00:25:41.113Z,37.23
2018-11-04T00:28:09.374Z,34.98
2018-11-04T00:30:37.245Z,35.92
2018-11-04T00:33:04.818Z,36.60
2018-11-04T00:35:32.311Z,37.00
2018-11-04T00:38:03.984Z,39.60
2018-11-04T00:40:32.037Z,40.48
2018-11-04T00:43:01.843Z,36.30
2018-11-04T00:45:29.519Z,38.23
2018-11-04T00:47:57.351Z,37.88
2018-11-04T00:50:25.192Z,40.00
2018-11-04T00:52:53.144Z,34.80
2018-11-04T00:55:20.743Z,38.63
2018-11-04T00:57:48.254Z,35.30
2018-11-04T01:00:20.920Z,36.88
2018-11-04T01:02:49.715Z,35.98
2018-11-04T01:05:17.913Z,43.78
2018-11-04T01:07:45.672Z,43.68
2018-11-04T01:10:13.420Z,40.40
2018-11-04T01:12:43.035Z,44.33
2018-11-04T01:15:12.426Z,40.70
2018-11-04T01:17:40.098Z,38.53
2018-11-04T01:22:34.984Z,40.28
2018-11-04T01:25:06.707Z,37.28
2018-11-04T01:27:34.105Z,42.93
2018-11-04T01:30:02.012Z,41.63
2018-11-04T01:32:29.386Z,40.58
2018-11-04T01:35:06.466Z,39.58
2018-11-04T01:37:33.886Z,34.90
2018-11-04T01:40:01.528Z,34.08
2018-11-04T01:42:29.466Z,39.58
2018-11-04T01:44:56.840Z,36.55
2018-11-04T01:47:24.282Z,40.90
2018-11-04T01:49:52.601Z,38.30
2018-11-04T01:52:20.791Z,40.28
2018-11-04T01:54:48.146Z,43.85
2018-11-04T01:57:16.296Z,39.25
2018-11-04T01:59:44.507Z,41.92
2018-11-04T02:02:12.085Z,39.45
2018-11-04T02:04:39.831Z,42.67
2018-11-04T02:07:07.214Z,43.15
2018-11-04T02:09:34.647Z,43.80
2018-11-04T02:12:02.152Z,43.52
2018-11-04T02:14:29.735Z,40.95
2018-11-04T02:16:57.971Z,41.92
2018-11-04T02:19:25.328Z,40.03
2018-11-04T02:21:52.748Z,43.05
2018-11-04T02:24:20.749Z,40.40
2018-11-04T02:26:48.162Z,38.45
2018-11-04T02:31:43.504Z,39.40
2018-11-04T02:34:11.238Z,38.85
2018-11-04T02:36:38.643Z,41.50
2018-11-04T02:39:06.128Z,48.10
2018-11-04T02:41:38.794Z,35.95
2018-11-04T02:44:06.192Z,44.63
2018-11-04T02:46:33.569Z,43.55
2018-11-04T02:49:01.568Z,46.75
2018-11-04T02:51:28.946Z,42.13
2018-11-04T02:53:56.378Z,43.28
2018-11-04T02:56:23.802Z,46.95
2018-11-04T02:58:51.730Z,41.08
2018-11-04T03:01:20.802Z,40.55
2018-11-04T03:03:49.069Z,39.53
2018-11-04T03:06:16.483Z,40.65
2018-11-04T03:08:44.152Z,40.15
2018-11-04T03:11:16.049Z,41.45
2018-11-04T03:13:43.889Z,41.63
2018-11-04T03:16:11.349Z,44.08
2018-11-04T03:18:39.362Z,40.73
2018-11-04T03:21:06.799Z,38.80
2018-11-04T03:23:34.185Z,40.03
2018-11-04T03:26:01.657Z,42.27
2018-11-04T03:28:29.448Z,42.25
2018-11-04T03:30:56.836Z,37.33
2018-11-04T03:33:25.172Z,39.27
2018-11-04T03:35:53.062Z,40.15
2018-11-04T03:38:21.803Z,38.73
2018-11-04T03:40:49.486Z,36.90
2018-11-04T03:43:17.462Z,34.98
2018-11-04T03:45:44.944Z,41.35
2018-11-04T03:48:13.096Z,43.38
2018-11-04T03:50:41.258Z,42.73
2018-11-04T03:53:09.725Z,40.00
2018-11-04T03:55:37.842Z,42.30
2018-11-04T03:58:05.277Z,41.63
2018-11-04T04:00:32.900Z,39.98
2018-11-04T04:03:00.367Z,37.28
2018-11-04T04:05:28.646Z,38.53
2018-11-04T04:07:56.416Z,37.85
2018-11-04T04:10:23.878Z,39.35
2018-11-04T04:12:51.604Z,42.83
2018-11-04T04:15:19.583Z,38.65
2018-11-04T04:17:47.555Z,45.35
2018-11-04T04:20:15.006Z,40.67
2018-11-04T04:22:42.435Z,41.28
2018-11-04T04:25:09.919Z,41.73
2018-11-04T04:27:38.486Z,37.93
2018-11-04T04:30:07.694Z,38.63
2018-11-04T04:32:39.994Z,40.35
2018-11-04T04:35:08.644Z,41.83
2018-11-04T04:37:36.321Z,45.30
2018-11-04T04:40:04.178Z,40.70
2018-11-04T04:42:31.548Z,40.17
2018-11-04T04:44:59.828Z,44.77
2018-11-04T04:47:27.283Z,41.98
2018-11-04T04:49:54.891Z,44.40
2018-11-04T04:52:28.984Z,40.50
2018-11-04T04:54:56.295Z,40.05
2018-11-04T04:57:24.555Z,43.00
2018-11-04T04:59:52.008Z,38.60
2018-11-04T05:02:19.352Z,35.90
2018-11-04T05:04:47.456Z,40.80
2018-11-04T05:07:14.836Z,41.70
2018-11-04T05:09:42.287Z,46.75
2018-11-04T05:14:40.495Z,42.85
2018-11-04T05:17:07.991Z,40.75
2018-11-04T05:19:35.457Z,40.38
2018-11-04T05:22:02.923Z,44.15
2018-11-04T05:24:31.337Z,45.28
2018-11-04T05:26:58.695Z,41.28
2018-11-04T05:29:26.077Z,44.58
2018-11-04T05:31:53.571Z,39.95
2018-11-04T05:34:21.253Z,39.85
2018-11-04T05:36:48.661Z,44.70
2018-11-04T05:39:16.633Z,42.45
2018-11-04T05:41:44.019Z,43.45
2018-11-04T05:44:11.961Z,43.70
2018-11-04T05:46:39.732Z,42.50
2018-11-04T05:49:08.262Z,43.30
2018-11-04T05:51:36.298Z,42.48
2018-11-04T05:54:03.771Z,42.80
2018-11-04T05:56:31.380Z,41.40
2018-11-04T05:58:59.110Z,48.08
2018-11-04T06:01:26.534Z,44.45
2018-11-04T06:03:59.106Z,41.75
2018-11-04T06:06:31.252Z,48.15
2018-11-04T06:08:59.334Z,41.40
2018-11-04T06:11:26.814Z,47.38
2018-11-04T06:14:02.781Z,41.70
2018-11-04T06:16:34.399Z,48.42
2018-11-04T06:19:06.480Z,45.90
2018-11-04T06:21:36.723Z,44.20
2018-11-04T06:24:04.137Z,41.40
2018-11-04T06:26:32.094Z,40.70
2018-11-04T06:29:00.349Z,43.75
2018-11-04T06:31:28.071Z,39.88
2018-11-04T06:33:55.586Z,42.55
2018-11-04T06:36:23.160Z,39.85
2018-11-04T06:38:54.676Z,41.75
2018-11-04T06:41:22.609Z,49.38
2018-11-04T06:43:50.698Z,45.65
2018-11-04T06:46:22.331Z,43.75
2018-11-04T06:48:54.967Z,38.00
2018-11-04T06:51:27.618Z,41.95
2018-11-04T06:53:55.586Z,42.93
2018-11-04T06:56:27.282Z,42.27
2018-11-04T06:58:55.787Z,43.92
2018-11-04T07:01:27.588Z,45.92
2018-11-04T07:04:00.794Z,44.45
2018-11-04T07:06:32.511Z,40.75
2018-11-04T07:09:04.841Z,40.67
2018-11-04T07:11:32.239Z,42.15
2018-11-04T07:13:59.696Z,39.92
2018-11-04T07:16:27.883Z,41.60
2018-11-04T07:18:55.537Z,42.60
2018-11-04T07:21:23.098Z,41.55
2018-11-04T07:23:50.569Z,39.40
2018-11-04T07:26:18.079Z,43.30
2018-11-04T07:28:49.983Z,39.00
2018-11-04T07:31:17.770Z,42.10
2018-11-04T07:33:45.120Z,42.48
2018-11-04T07:36:12.566Z,41.63
2018-11-04T07:38:39.915Z,44.65
2018-11-04T07:41:08.501Z,41.50
2018-11-04T07:43:36.624Z,42.08
2018-11-04T07:46:04.476Z,42.00
2018-11-04T07:48:31.871Z,42.58
2018-11-04T07:50:59.963Z,42.73
2018-11-04T07:53:27.442Z,45.33
2018-11-04T07:55:54.758Z,43.78
2018-11-04T07:58:22.163Z,46.10
2018-11-04T08:00:49.475Z,48.50
2018-11-04T08:03:16.777Z,43.05
2018-11-04T08:05:44.079Z,47.20
2018-11-04T08:08:11.449Z,45.55
2018-11-04T08:10:39.581Z,48.58
2018-11-04T08:13:06.910Z,53.52
2018-11-04T08:15:34.248Z,47.48
2018-11-04T08:18:01.563Z,48.35
2018-11-04T08:20:28.870Z,48.38
2018-11-04T08:22:56.500Z,43.02
2018-11-04T08:25:23.840Z,46.05
2018-11-04T08:27:51.338Z,42.53
2018-11-04T08:30:18.662Z,44.77
2018-11-04T08:32:46.019Z,46.02
2018-11-04T08:35:13.310Z,39.63
2018-11-04T08:37:40.682Z,44.80
2018-11-04T08:40:08.262Z,43.70
2018-11-04T08:42:35.444Z,42.70
2018-11-04T08:45:02.845Z,42.15
2018-11-04T08:47:30.397Z,40.17
2018-11-04T08:49:57.760Z,41.45
2018-11-04T08:52:25.195Z,41.30
2018-11-04T08:54:52.539Z,45.43
2018-11-04T08:57:19.831Z,45.90
2018-11-04T08:59:47.165Z,45.20
2018-11-04T09:02:14.836Z,47.15
2018-11-04T09:04:42.239Z,42.45
2018-11-04T09:07:09.575Z,42.62
2018-11-04T09:09:36.948Z,46.65
2018-11-04T09:12:04.454Z,45.35
2018-11-04T09:14:31.972Z,45.30
2018-11-04T09:16:59.302Z,45.83
2018-11-04T09:19:26.663Z,46.05
2018-11-04T09:21:54.143Z,47.25
2018-11-04T09:24:21.478Z,41.65
2018-11-04T09:26:48.784Z,42.80
2018-11-04T09:29:16.703Z,44.80
2018-11-04T09:31:43.935Z,41.77
2018-11-04T09:34:11.269Z,45.92
2018-11-04T09:36:38.652Z,42.10
2018-11-04T09:39:06.893Z,44.98
2018-11-04T09:41:34.244Z,44.10
2018-11-04T09:44:01.648Z,45.63
2018-11-04T09:46:29.020Z,44.58
2018-11-04T09:48:56.327Z,44.33
2018-11-04T09:51:23.719Z,44.83
2018-11-04T09:53:51.185Z,40.85
2018-11-04T09:56:19.122Z,44.27
2018-11-04T09:58:46.530Z,43.68
2018-11-04T10:01:13.907Z,44.90
2018-11-04T10:03:41.926Z,45.12
2018-11-04T10:06:09.270Z,41.35
2018-11-04T10:08:36.644Z,43.92
2018-11-04T10:11:04.608Z,43.08
2018-11-04T10:13:32.070Z,44.65
2018-11-04T10:15:59.395Z,44.98
2018-11-04T10:18:26.729Z,45.43
2018-11-04T10:20:54.541Z,47.03
2018-11-04T10:23:21.492Z,43.95
2018-11-04T10:25:48.793Z,45.92
2018-11-04T10:28:16.116Z,46.40
2018-11-04T10:30:43.432Z,42.93
2018-11-04T10:33:10.762Z,44.90
2018-11-04T10:35:38.127Z,44.05
2018-11-04T10:38:05.823Z,46.50
2018-11-04T10:40:33.256Z,46.85
2018-11-04T10:43:00.543Z,45.10
2018-11-04T10:45:28.052Z,47.50
2018-11-04T10:47:55.588Z,46.88
2018-11-04T10:50:23.031Z,41.75
2018-11-04T10:52:50.835Z,42.33
2018-11-04T10:55:18.226Z,48.45
2018-11-04T10:57:45.696Z,42.45
2018-11-04T11:00:18.501Z,45.05
2018-11-04T11:02:46.087Z,44.85
2018-11-04T11:05:13.495Z,49.15
2018-11-04T11:07:41.275Z,46.37
2018-11-04T11:10:09.678Z,45.73
2018-11-04T11:12:37.238Z,47.35
2018-11-04T11:15:05.179Z,46.15
2018-11-04T11:17:32.563Z,43.35
2018-11-04T11:20:00.066Z,44.35
2018-11-04T11:22:27.424Z,42.78
2018-11-04T11:24:55.357Z,46.55
2018-11-04T11:27:23.110Z,48.73
2018-11-04T11:29:50.513Z,48.83
2018-11-04T11:32:18.118Z,48.90
2018-11-04T11:34:45.442Z,46.28
2018-11-04T11:37:12.835Z,50.63
2018-11-04T11:39:40.154Z,44.23
2018-11-04T11:42:07.550Z,47.05
2018-11-04T11:44:34.871Z,42.85
2018-11-04T11:47:02.920Z,45.92
2018-11-04T11:49:30.282Z,49.33
2018-11-04T11:51:57.625Z,46.28
2018-11-04T11:54:25.202Z,44.73
2018-11-04T11:56:52.532Z,43.92
2018-11-04T11:59:19.875Z,45.43
2018-11-04T12:01:47.191Z,44.20
2018-11-04T12:04:14.512Z,43.98
2018-11-04T12:06:41.818Z,45.60
2018-11-04T12:09:10.116Z,41.53
2018-11-04T12:11:37.730Z,44.67
2018-11-04T12:14:05.077Z,44.15
2018-11-04T12:16:32.396Z,46.13
2018-11-04T12:18:59.894Z,46.40
2018-11-04T12:21:27.246Z,42.85
2018-11-04T12:23:54.753Z,45.12
2018-11-04T12:26:22.034Z,45.85
2018-11-04T12:28:49.856Z,45.85
2018-11-04T12:31:17.226Z,46.55
2018-11-04T12:33:44.529Z,43.08
2018-11-04T12:36:12.548Z,44.80
2018-11-04T12:38:39.962Z,44.13
2018-11-04T12:41:07.598Z,43.87
2018-11-04T12:43:35.278Z,50.33
2018-11-04T12:46:02.894Z,45.92
2018-11-04T12:48:36.850Z,46.98
2018-11-04T12:51:05.019Z,50.25
2018-11-04T12:53:32.475Z,45.03
2018-11-04T12:55:59.850Z,42.90
2018-11-04T12:58:27.450Z,42.65
2018-11-04T13:00:54.763Z,47.03
2018-11-04T13:03:22.080Z,49.13
2018-11-04T13:05:49.696Z,47.73
2018-11-04T13:08:17.205Z,43.87
2018-11-04T13:10:44.684Z,44.55
2018-11-04T13:13:12.018Z,45.58
2018-11-04T13:15:39.384Z,42.95
2018-11-04T13:18:06.841Z,51.75
2018-11-04T13:20:34.201Z,47.05
2018-11-04T13:23:01.630Z,43.50
2018-11-04T13:25:29.104Z,42.53
2018-11-04T13:27:56.513Z,42.90
2018-11-04T13:30:23.841Z,45.98
2018-11-04T13:32:51.240Z,43.33
2018-11-04T13:35:18.601Z,46.02
2018-11-04T13:37:46.179Z,47.80
2018-11-04T13:40:13.529Z,45.88
2018-11-04T13:42:41.527Z,45.98
2018-11-04T13:45:09.373Z,45.20
2018-11-04T13:47:36.982Z,46.35
2018-11-04T13:50:05.071Z,42.62
2018-11-04T13:52:32.534Z,45.30
2018-11-04T13:54:59.947Z,43.48
2018-11-04T13:57:27.294Z,43.80
2018-11-04T13:59:54.653Z,43.58
2018-11-04T14:02:22.027Z,42.48
2018-11-04T14:04:49.431Z,45.85
2018-11-04T14:07:16.838Z,44.67
2018-11-04T14:09:44.298Z,40.92
2018-11-04T14:12:11.656Z,44.60
2018-11-04T14:14:39.068Z,44.00
2018-11-04T14:17:06.464Z,44.58
2018-11-04T14:19:33.882Z,41.68
2018-11-04T14:22:01.204Z,42.40
2018-11-04T14:24:28.525Z,48.65
2018-11-04T14:26:56.001Z,43.30
2018-11-04T14:29:23.422Z,45.98
2018-11-04T14:31:51.184Z,43.95
2018-11-04T14:34:18.696Z,40.48
2018-11-04T14:36:46.198Z,42.65
2018-11-04T14:39:13.537Z,43.08
2018-11-04T14:41:40.890Z,37.85
2018-11-04T14:44:08.262Z,37.03
2018-11-04T14:46:35.859Z,36.73
2018-11-04T14:49:03.385Z,37.55
2018-11-04T14:51:30.813Z,38.33
2018-11-04T14:53:58.203Z,38.75
2018-11-04T14:56:27.230Z,38.95
2018-11-04T14:58:54.563Z,40.75
2018-11-04T15:01:21.990Z,34.45
2018-11-04T15:03:49.581Z,40.00
2018-11-04T15:06:17.495Z,35.30
2018-11-04T15:08:45.083Z,35.10
2018-11-04T15:11:12.860Z,36.88
2018-11-04T15:13:40.328Z,35.13
2018-11-04T15:16:07.704Z,33.83
2018-11-04T15:18:35.174Z,35.75
2018-11-04T15:21:02.544Z,34.58
2018-11-04T15:23:29.871Z,37.30
2018-11-04T15:25:57.246Z,40.88
2018-11-04T15:28:24.574Z,38.63
2018-11-04T15:30:51.963Z,35.38
2018-11-04T15:33:19.983Z,37.00
2018-11-04T15:35:47.498Z,36.40
2018-11-04T15:38:14.863Z,34.80
2018-11-04T15:40:42.455Z,35.58
2018-11-04T15:43:09.816Z,33.08
2018-11-04T15:45:37.151Z,34.67
2018-11-04T15:48:04.516Z,33.38
2018-11-04T15:50:32.077Z,33.90
2018-11-04T15:52:59.576Z,31.20
2018-11-04T15:55:26.959Z,30.68
2018-11-04T15:57:54.277Z,33.28
2018-11-04T16:00:22.314Z,35.85
2018-11-04T16:02:49.654Z,32.20
2018-11-04T16:05:17.057Z,35.15
2018-11-04T16:07:45.350Z,30.70
2018-11-04T16:10:13.140Z,31.12
2018-11-04T16:12:40.532Z,33.38
2018-11-04T16:15:08.900Z,31.15
2018-11-04T16:17:36.279Z,30.82
2018-11-04T16:20:04.400Z,30.82
2018-11-04T16:22:31.699Z,33.70
2018-11-04T16:24:59.528Z,32.55
2018-11-04T16:27:27.053Z,40.73
2018-11-04T16:29:54.376Z,36.38
2018-11-04T16:32:21.821Z,37.13
2018-11-04T16:34:49.474Z,32.78
2018-11-04T16:37:16.833Z,33.48
2018-11-04T16:39:44.163Z,30.08
2018-11-04T16:42:11.582Z,32.53
2018-11-04T16:44:39.223Z,30.95
2018-11-04T16:47:06.491Z,30.00
2018-11-04T16:49:34.432Z,29.85
2018-11-04T16:52:01.859Z,31.00
2018-11-04T16:54:29.226Z,31.52
2018-11-04T16:56:57.297Z,29.70
2018-11-04T16:59:25.891Z,29.35
2018-11-04T17:01:53.382Z,29.45
2018-11-04T17:04:21.005Z,30.45
2018-11-04T17:06:48.284Z,33.08
2018-11-04T17:09:15.899Z,32.08
2018-11-04T17:11:43.673Z,30.20
2018-11-04T17:14:11.030Z,29.77
2018-11-04T17:16:38.686Z,31.50
2018-11-04T17:19:06.308Z,28.20
2018-11-04T17:21:33.684Z,30.62
2018-11-04T17:24:01.662Z,30.45
2018-11-04T17:26:29.082Z,30.02
2018-11-04T17:28:56.512Z,30.30
2018-11-04T17:31:24.757Z,31.65
2018-11-04T17:33:52.450Z,30.43
2018-11-04T17:36:19.858Z,32.67
2018-11-04T17:38:47.535Z,28.73
2018-11-04T17:41:15.359Z,29.92
2018-11-04T17:43:42.824Z,31.40
2018-11-04T17:46:10.319Z,27.58
2018-11-04T17:48:37.794Z,29.85
2018-11-04T17:51:09.369Z,30.52
2018-11-04T17:53:37.377Z,29.80
2018-11-04T17:56:05.727Z,27.20
2018-11-04T18:01:00.392Z,27.35
2018-11-04T18:03:28.226Z,25.43
2018-11-04T18:05:56.188Z,28.35
2018-11-04T18:08:24.224Z,25.15
2018-11-04T18:10:51.676Z,26.37
2018-11-04T18:13:19.467Z,31.87
2018-11-04T18:15:47.469Z,29.35
2018-11-04T18:18:15.924Z,26.82
2018-11-04T18:20:43.323Z,27.65
2018-11-04T18:23:10.756Z,25.43
2018-11-04T18:25:38.258Z,24.35
2018-11-04T18:28:05.731Z,26.12
2018-11-04T18:30:37.551Z,24.75
2018-11-04T18:33:05.915Z,24.82
2018-11-04T18:35:33.333Z,25.68
2018-11-04T18:38:00.894Z,26.75
2018-11-04T18:40:28.425Z,27.40
2018-11-04T18:42:55.943Z,27.73
2018-11-04T18:45:23.533Z,27.10
2018-11-04T18:47:50.941Z,25.72
2018-11-04T18:50:19.101Z,26.10
2018-11-04T18:52:46.678Z,27.05
2018-11-04T18:55:14.171Z,29.12
2018-11-04T18:57:42.695Z,24.55
2018-11-04T19:00:11.860Z,28.00
2018-11-04T19:02:46.445Z,27.70
2018-11-04T19:05:14.023Z,26.75
2018-11-04T19:07:41.482Z,30.00
2018-11-04T19:10:11.297Z,25.60
2018-11-04T19:12:38.812Z,28.70
2018-11-04T19:15:06.515Z,26.17
2018-11-04T19:17:34.140Z,24.10
2018-11-04T19:20:02.470Z,29.48
2018-11-04T19:22:30.528Z,24.23
2018-11-04T19:24:58.600Z,26.30
2018-11-04T19:27:26.711Z,27.55
2018-11-04T19:29:54.143Z,25.65
2018-11-04T19:32:21.788Z,27.45
2018-11-04T19:34:49.335Z,28.75
2018-11-04T19:37:16.934Z,26.73
2018-11-04T19:39:44.273Z,27.07
2018-11-04T19:42:11.718Z,26.95
2018-11-04T19:44:39.290Z,27.37
2018-11-04T19:47:07.291Z,25.27
2018-11-04T19:49:34.744Z,27.35
2018-11-04T19:52:02.695Z,30.35
2018-11-04T19:54:30.051Z,30.70
2018-11-04T19:56:58.140Z,25.20
2018-11-04T19:59:26.222Z,25.35
2018-11-04T20:01:53.703Z,28.55
2018-11-04T20:04:21.152Z,26.07
2018-11-04T20:06:48.623Z,29.48
2018-11-04T20:09:17.350Z,26.25
2018-11-04T20:11:45.237Z,24.27
2018-11-04T20:14:29.422Z,25.08
2018-11-04T20:16:57.434Z,24.07
2018-11-04T20:19:30.309Z,24.23
2018-11-04T20:21:57.613Z,26.07
2018-11-04T20:24:30.571Z,23.90
2018-11-04T20:26:58.704Z,25.27
2018-11-04T20:29:26.796Z,24.12
2018-11-04T20:32:04.031Z,25.77
2018-11-04T20:34:31.564Z,25.82
2018-11-04T20:36:59.009Z,28.15
2018-11-04T20:39:31.898Z,24.87
2018-11-04T20:41:59.342Z,24.72
2018-11-04T20:44:26.783Z,24.47
2018-11-04T20:46:54.841Z,27.15
2018-11-04T20:49:27.483Z,22.77
2018-11-04T20:51:55.100Z,26.02
2018-11-04T20:54:22.523Z,25.12
2018-11-04T20:56:55.233Z,25.32
2018-11-04T20:59:23.391Z,23.80
2018-11-04T21:01:50.807Z,23.85
2018-11-04T21:04:18.191Z,24.65
2018-11-04T21:06:45.854Z,27.02
2018-11-04T21:09:22.360Z,25.37
2018-11-04T21:11:49.864Z,23.42
2018-11-04T21:14:17.248Z,25.32
2018-11-04T21:16:44.768Z,24.20
2018-11-04T21:19:12.082Z,25.17
2018-11-04T21:21:39.520Z,26.60
2018-11-04T21:24:06.867Z,25.70
2018-11-04T21:26:34.753Z,26.07
2018-11-04T21:29:02.354Z,26.27
2018-11-04T21:31:29.713Z,26.20
2018-11-04T21:33:57.144Z,27.10
2018-11-04T21:36:26.134Z,25.80
2018-11-04T21:38:53.578Z,26.80
2018-11-04T21:41:21.659Z,26.60
2018-11-04T21:43:49.331Z,27.00
2018-11-04T21:46:17.411Z,28.27
2018-11-04T21:48:46.056Z,29.87
2018-11-04T21:51:15.452Z,29.65
2018-11-04T21:53:42.901Z,31.57
2018-11-04T21:56:10.704Z,25.17
2018-11-04T21:58:38.150Z,28.87
2018-11-04T22:01:05.660Z,27.60
2018-11-04T22:03:33.209Z,27.02
2018-11-04T22:06:00.611Z,29.32
2018-11-04T22:08:28.023Z,30.77
2018-11-04T22:10:55.472Z,28.80
2018-11-04T22:13:23.548Z,28.67
2018-11-04T22:15:51.156Z,27.90
2018-11-04T22:18:18.547Z,26.80
2018-11-04T22:20:45.978Z,30.17
2018-11-04T22:23:13.595Z,27.98
2018-11-04T22:25:40.975Z,31.07
2018-11-04T22:28:08.422Z,32.08
2018-11-04T22:30:35.801Z,28.47
2018-11-04T22:33:03.181Z,29.10
2018-11-04T22:35:30.850Z,30.23
2018-11-04T22:37:58.241Z,29.10
2018-11-04T22:40:25.695Z,29.07
2018-11-04T22:42:53.823Z,28.95
2018-11-04T22:45:21.516Z,31.25
2018-11-04T22:47:49.066Z,28.20
2018-11-04T22:50:17.137Z,28.27
2018-11-04T22:52:44.982Z,29.35
2018-11-04T22:55:13.407Z,29.67
2018-11-04T22:57:45.358Z,31.10
2018-11-04T23:00:18.910Z,28.27
2018-11-04T23:02:47.614Z,31.97
2018-11-04T23:05:20.936Z,28.60
2018-11-04T23:07:49.539Z,30.65
2018-11-04T23:10:21.166Z,30.75
2018-11-04T23:12:48.747Z,26.73
2018-11-04T23:15:16.115Z,29.55
2018-11-04T23:17:44.387Z,27.27
2018-11-04T23:20:12.089Z,31.20
2018-11-04T23:22:39.603Z,28.23
2018-11-04T23:25:08.190Z,30.25
2018-11-04T23:27:36.784Z,29.35
2018-11-04T23:30:05.268Z,28.85
2018-11-04T23:32:32.771Z,29.18
2018-11-04T23:35:00.187Z,30.17
2018-11-04T23:37:27.671Z,30.12
2018-11-04T23:39:55.935Z,33.65
2018-11-04T23:42:23.534Z,34.03
2018-11-04T23:44:55.186Z,33.55
2018-11-04T23:47:22.895Z,32.98
2018-11-04T23:49:50.910Z,30.17
2018-11-04T23:52:20.366Z,32.17
2018-11-04T23:54:47.859Z,31.77
2018-11-04T23:57:15.223Z,28.70
2018-11-04T23:59:43.386Z,30.88
